Time;durP1;ratioP1;P1;durP2;ratioP2;P2;SDS_P1;SDS_P2;PMS_P1;PMS_P2;Temp;Humidity;BMP_temperature;BMP_pressure;BME280_temperature;BME280_humidity;BME280_pressure;Samples;Min_cycle;Max_cycle;Signal;HPM_P1;HPM_P2
2023/05/01 00:01:40;;;;;;;8.68;5.82;;;;;;;14.02;58.35;101611.16;5093969;28;20420;-59
2023/05/01 00:04:05;;;;;;;7.30;5.57;;;;;;;14.04;57.25;101608.38;5092463;28;20059;-59
2023/05/01 00:06:32;;;;;;;6.45;5.78;;;;;;;14.09;57.31;101592.91;5095169;28;20058;-59
2023/05/01 00:08:58;;;;;;;7.68;5.80;;;;;;;14.09;57.25;101592.91;5096422;28;20566;-59
2023/05/01 00:11:23;;;;;;;8.30;6.10;;;;;;;14.17;57.99;101589.69;5112257;28;20031;-59
2023/05/01 00:13:49;;;;;;;7.13;6.40;;;;;;;14.14;57.06;101579.19;5112542;28;20110;-59
2023/05/01 00:16:16;;;;;;;11.10;6.68;;;;;;;14.28;56.93;101579.16;5102887;28;20433;-59
2023/05/01 00:18:41;;;;;;;6.03;5.43;;;;;;;14.13;57.62;101577.50;5092548;28;20016;-59
2023/05/01 00:21:07;;;;;;;6.90;6.15;;;;;;;14.14;57.86;101582.72;5092808;28;20031;-59
2023/05/01 00:23:32;;;;;;;8.65;6.18;;;;;;;14.12;56.83;101573.97;5108332;28;20035;-59
2023/05/01 00:26:00;;;;;;;10.50;6.07;;;;;;;14.05;56.60;101583.34;5095541;28;20394;-59
2023/05/01 00:28:25;;;;;;;12.02;6.20;;;;;;;14.04;57.59;101569.13;5093473;28;20108;-59
2023/05/01 00:30:51;;;;;;;9.05;7.00;;;;;;;14.04;57.66;101566.44;5093416;28;20058;-59
2023/05/01 00:33:16;;;;;;;9.23;6.35;;;;;;;13.74;59.33;101568.47;5091822;28;20050;-59
2023/05/01 00:35:45;;;;;;;9.32;6.65;;;;;;;13.85;57.88;101566.81;5092113;28;20081;-59
2023/05/01 00:38:11;;;;;;;7.47;6.57;;;;;;;13.89;58.12;101556.75;5091651;28;20048;-59
2023/05/01 00:40:44;;;;;;;9.40;6.88;;;;;;;13.78;59.12;101567.28;5093430;28;20430;-59
2023/05/01 00:43:13;;;;;;;11.05;6.68;;;;;;;13.87;59.34;101558.66;5093247;28;20038;-59
2023/05/01 00:45:44;;;;;;;9.40;6.60;;;;;;;13.70;59.84;101562.44;5093446;28;20107;-59
2023/05/01 00:48:09;;;;;;;8.65;6.15;;;;;;;13.77;60.07;101553.06;5093091;28;20024;-59
2023/05/01 00:50:35;;;;;;;9.48;6.70;;;;;;;13.52;60.41;101550.25;5092726;28;20421;-59
2023/05/01 00:53:01;;;;;;;9.40;6.90;;;;;;;13.55;61.87;101553.59;5093983;28;20036;-59
2023/05/01 00:55:27;;;;;;;9.90;6.82;;;;;;;13.45;60.75;101547.13;5093142;28;20386;-59
2023/05/01 00:57:54;;;;;;;9.68;6.72;;;;;;;13.57;60.58;101540.13;5092991;28;20020;-59
2023/05/01 01:00:22;;;;;;;7.47;6.70;;;;;;;13.62;60.91;101540.72;5091765;28;20467;-59
2023/05/01 01:02:50;;;;;;;9.07;6.63;;;;;;;13.69;61.32;101535.81;5092945;28;20020;-59
2023/05/01 01:05:16;;;;;;;8.75;6.32;;;;;;;13.74;60.89;101529.22;5092287;28;20024;-59
2023/05/01 01:08:01;;;;;;;9.02;6.72;;;;;;;13.78;61.49;101527.19;5092149;28;20032;-59
2023/05/01 01:10:39;;;;;;;7.57;6.70;;;;;;;13.66;61.82;101520.81;5092523;28;20016;-59
2023/05/01 01:13:21;;;;;;;7.50;6.63;;;;;;;13.72;60.09;101519.56;5091010;28;20028;-59
2023/05/01 01:16:02;;;;;;;9.15;6.70;;;;;;;13.64;60.50;101509.38;5092508;28;20027;-59
2023/05/01 01:18:30;;;;;;;11.02;6.95;;;;;;;13.62;60.63;101513.97;5092343;28;20020;-59
2023/05/01 01:21:17;;;;;;;9.18;6.32;;;;;;;13.66;60.15;101507.47;5091238;28;20559;-59
2023/05/01 01:23:58;;;;;;;9.10;6.43;;;;;;;13.60;60.32;101508.72;5092405;28;20433;-59
2023/05/01 01:26:38;;;;;;;10.00;6.53;;;;;;;13.67;61.11;101500.28;5092003;28;20083;-59
2023/05/01 01:29:28;;;;;;;7.53;6.63;;;;;;;13.59;60.58;101501.66;5092509;28;20075;-59
2023/05/01 01:32:21;;;;;;;8.70;6.20;;;;;;;13.40;62.93;101495.78;5109702;28;20032;-59
2023/05/01 01:34:54;;;;;;;9.40;6.63;;;;;;;13.24;62.03;101490.56;5107808;28;20039;-59
2023/05/01 01:37:23;;;;;;;7.93;7.00;;;;;;;13.29;62.38;101487.59;5093181;28;20102;-59
2023/05/01 01:39:57;;;;;;;7.63;6.45;;;;;;;13.44;62.20;101477.75;5094069;28;20024;-59
2023/05/01 01:42:35;;;;;;;7.60;6.88;;;;;;;13.35;62.88;101482.75;5109589;28;20038;-59
2023/05/01 01:45:09;;;;;;;7.45;5.72;;;;;;;13.34;62.88;101485.50;5110342;28;20391;-59
2023/05/01 01:47:37;;;;;;;7.30;6.70;;;;;;;13.22;62.82;101471.09;5106321;28;20114;-59
2023/05/01 01:50:07;;;;;;;9.65;6.40;;;;;;;13.32;62.69;101466.88;5110085;28;20043;-59
2023/05/01 01:52:34;;;;;;;10.80;6.10;;;;;;;13.24;63.04;101452.31;5110860;28;20035;-59
2023/05/01 01:55:09;;;;;;;6.95;6.25;;;;;;;13.26;63.47;101451.25;5109940;28;20028;-59
2023/05/01 01:57:38;;;;;;;9.63;6.07;;;;;;;13.20;62.84;101462.31;5112226;28;20027;-59
2023/05/01 02:00:07;;;;;;;7.50;6.38;;;;;;;13.21;62.29;101464.03;5110715;28;20027;-59
2023/05/01 02:02:36;;;;;;;7.13;6.43;;;;;;;13.18;62.93;101464.22;5110436;28;20065;-59
2023/05/01 02:05:03;;;;;;;6.68;6.05;;;;;;;13.04;63.18;101448.22;5110638;28;20027;-59
2023/05/01 02:07:31;;;;;;;7.07;6.03;;;;;;;13.13;63.69;101459.19;5111824;28;20027;-59
2023/05/01 02:09:58;;;;;;;7.55;6.38;;;;;;;13.02;63.93;101461.66;5109702;28;20027;-59
2023/05/01 02:12:25;;;;;;;10.80;6.53;;;;;;;13.01;63.61;101451.09;5109330;28;20032;-59
2023/05/01 02:14:52;;;;;;;7.50;6.25;;;;;;;12.92;64.48;101450.72;5111644;28;20110;-59
2023/05/01 02:17:20;;;;;;;9.43;6.93;;;;;;;13.01;64.01;101446.59;5115952;28;20023;-59
2023/05/01 02:19:46;;;;;;;7.47;6.63;;;;;;;13.02;65.22;101447.47;5116076;27;20031;-59
2023/05/01 02:22:13;;;;;;;8.50;7.00;;;;;;;13.05;63.99;101450.78;5112942;28;20027;-59
2023/05/01 02:24:41;;;;;;;7.90;6.85;;;;;;;12.86;64.66;101443.09;5117267;27;20378;-59
2023/05/01 02:27:12;;;;;;;12.45;7.20;;;;;;;12.92;64.50;101440.03;5114140;28;20054;-59
2023/05/01 02:29:38;;;;;;;9.60;7.35;;;;;;;13.01;63.90;101424.41;5116051;28;20031;-59
2023/05/01 02:32:04;;;;;;;9.38;7.65;;;;;;;13.07;64.33;101437.34;5116129;28;20026;-59
2023/05/01 02:34:29;;;;;;;8.18;7.45;;;;;;;13.04;64.68;101433.06;5117348;27;20023;-59
2023/05/01 02:36:54;;;;;;;7.45;6.78;;;;;;;13.03;64.33;101428.69;5102156;28;20060;-59
2023/05/01 02:39:20;;;;;;;8.18;7.38;;;;;;;12.91;64.56;101422.31;5096959;28;20024;-59
2023/05/01 02:41:50;;;;;;;9.05;8.20;;;;;;;12.83;66.02;101421.09;5114752;28;20027;-59
2023/05/01 02:44:17;;;;;;;8.80;7.88;;;;;;;12.90;65.59;101419.72;5118714;27;20031;-59
2023/05/01 02:46:46;;;;;;;11.27;7.72;;;;;;;12.81;65.66;101415.81;5106471;27;20372;-59
2023/05/01 02:49:11;;;;;;;10.45;7.05;;;;;;;12.81;66.94;101413.16;5116957;27;20038;-59
2023/05/01 02:51:37;;;;;;;7.75;6.90;;;;;;;12.76;65.84;101411.72;5110166;27;20032;-59
2023/05/01 02:54:03;;;;;;;8.15;7.35;;;;;;;12.89;66.23;101407.34;5098244;28;20115;-59
2023/05/01 02:56:29;;;;;;;8.07;7.28;;;;;;;12.77;65.95;101398.31;5098139;28;20016;-59
2023/05/01 02:58:54;;;;;;;8.82;7.05;;;;;;;12.92;65.57;101397.31;5096806;28;20032;-59
2023/05/01 03:01:22;;;;;;;9.75;7.43;;;;;;;12.80;65.99;101397.25;5097813;28;20028;-59
2023/05/01 03:03:48;;;;;;;7.88;7.05;;;;;;;12.85;66.40;101398.69;5097907;28;20493;-59
2023/05/01 03:06:15;;;;;;;8.73;7.85;;;;;;;12.81;66.27;101399.81;5095684;28;20028;-59
2023/05/01 03:08:41;;;;;;;10.50;7.40;;;;;;;12.74;66.74;101393.16;5097117;28;20114;-59
2023/05/01 03:11:09;;;;;;;8.43;7.68;;;;;;;12.83;66.15;101383.72;5096766;28;20119;-59
2023/05/01 03:13:37;;;;;;;9.43;7.32;;;;;;;12.69;65.58;101380.09;5097895;28;20118;-59
2023/05/01 03:16:03;;;;;;;8.77;7.85;;;;;;;12.81;65.66;101381.13;5097336;28;20198;-59
2023/05/01 03:18:28;;;;;;;10.02;7.70;;;;;;;12.74;66.13;101382.50;5100514;28;20025;-59
2023/05/01 03:20:58;;;;;;;8.25;7.43;;;;;;;12.78;66.07;101375.97;5097875;28;20453;-59
2023/05/01 03:23:24;;;;;;;11.40;8.07;;;;;;;12.71;65.89;101372.00;5096370;28;20073;-59
2023/05/01 03:25:50;;;;;;;10.20;8.07;;;;;;;12.57;66.87;101372.03;5097633;28;20436;-59
2023/05/01 03:28:16;;;;;;;9.18;8.23;;;;;;;12.47;67.74;101371.72;5094192;28;20101;-59
2023/05/01 03:30:43;;;;;;;9.50;8.40;;;;;;;12.48;66.02;101360.13;5093699;28;20036;-59
2023/05/01 03:33:08;;;;;;;12.90;8.35;;;;;;;12.47;66.47;101356.59;5093384;28;20024;-59
2023/05/01 03:35:34;;;;;;;10.32;8.75;;;;;;;12.47;66.70;101356.59;5094630;28;20024;-59
2023/05/01 03:38:00;;;;;;;9.40;8.48;;;;;;;12.28;66.83;101358.69;5094045;28;20360;-59
2023/05/01 03:40:25;;;;;;;10.95;8.38;;;;;;;12.28;67.61;101353.34;5093190;28;20047;-59
2023/05/01 03:42:50;;;;;;;9.18;8.18;;;;;;;12.35;68.38;101361.81;5094191;28;20031;-59
2023/05/01 03:45:16;;;;;;;15.10;8.57;;;;;;;12.39;66.91;101366.03;5094189;28;20031;-59
2023/05/01 03:47:41;;;;;;;14.98;9.75;;;;;;;12.45;66.98;101354.97;5094344;28;20037;-59
2023/05/01 03:50:08;;;;;;;10.48;8.90;;;;;;;12.35;68.23;101353.81;5094214;28;20502;-59
2023/05/01 03:52:33;;;;;;;11.70;8.77;;;;;;;12.32;67.97;101349.53;5093448;28;20028;-59
2023/05/01 03:54:59;;;;;;;11.63;8.27;;;;;;;12.34;68.10;101352.13;5097742;28;20110;-59
2023/05/01 03:57:25;;;;;;;9.70;8.13;;;;;;;12.34;67.99;101342.28;5092593;28;20363;-59
2023/05/01 03:59:51;;;;;;;9.68;8.77;;;;;;;12.35;68.08;101351.16;5094174;28;20024;-59
2023/05/01 04:02:16;;;;;;;10.05;9.00;;;;;;;12.31;68.20;101341.63;5092676;28;20540;-59
2023/05/01 04:04:42;;;;;;;9.57;8.32;;;;;;;12.36;67.76;101343.06;5092555;28;20135;-59
2023/05/01 04:07:10;;;;;;;11.48;9.13;;;;;;;12.39;67.91;101345.53;5091868;28;20027;-59
2023/05/01 04:09:36;;;;;;;13.43;8.32;;;;;;;12.35;68.05;101335.16;5094005;28;20395;-59
2023/05/01 04:12:04;;;;;;;9.95;8.85;;;;;;;12.41;67.97;101345.44;5093466;28;20032;-59
2023/05/01 04:14:30;;;;;;;11.18;9.13;;;;;;;12.22;68.35;101343.06;5093805;28;20160;-59
2023/05/01 04:16:56;;;;;;;9.57;8.63;;;;;;;12.20;68.22;101350.28;5095458;28;20024;-59
2023/05/01 04:19:22;;;;;;;14.73;9.55;;;;;;;12.11;68.91;101349.06;5093851;28;20057;-59
2023/05/01 04:21:47;;;;;;;11.43;9.60;;;;;;;12.14;68.62;101338.19;5093434;28;20020;-59
2023/05/01 04:24:13;;;;;;;9.73;8.85;;;;;;;12.09;68.81;101348.31;5092493;28;20039;-59
2023/05/01 04:26:41;;;;;;;11.88;10.00;;;;;;;12.18;68.91;101352.22;5091956;28;20094;-59
2023/05/01 04:29:07;;;;;;;11.48;9.63;;;;;;;12.02;68.76;101336.28;5093512;28;20419;-59
2023/05/01 04:31:33;;;;;;;10.57;9.50;;;;;;;12.11;68.88;101362.38;5092144;28;20036;-59
2023/05/01 04:33:59;;;;;;;12.68;9.77;;;;;;;12.15;70.32;101353.25;5092206;28;20032;-59
2023/05/01 04:36:24;;;;;;;11.15;9.65;;;;;;;12.20;69.45;101355.63;5091680;28;20695;-59
2023/05/01 04:38:50;;;;;;;11.15;9.23;;;;;;;12.14;69.39;101348.84;5093252;28;20024;-59
2023/05/01 04:41:15;;;;;;;12.32;9.05;;;;;;;12.28;68.99;101340.00;5092956;28;20080;-59
2023/05/01 04:43:40;;;;;;;10.43;9.27;;;;;;;12.10;68.93;101334.00;5093543;28;20032;-59
2023/05/01 04:46:08;;;;;;;9.52;8.57;;;;;;;12.22;69.05;101338.59;5092672;28;20081;-59
2023/05/01 04:48:34;;;;;;;11.77;10.25;;;;;;;12.16;68.91;101343.44;5091917;28;20115;-59
2023/05/01 04:51:00;;;;;;;10.80;9.23;;;;;;;12.05;69.46;101330.75;5092695;28;20396;-59
2023/05/01 04:53:25;;;;;;;10.77;9.57;;;;;;;12.10;70.39;101342.00;5092864;28;20071;-59
2023/05/01 04:55:50;;;;;;;10.07;8.98;;;;;;;12.24;69.66;101341.16;5092749;28;20391;-59
2023/05/01 04:58:16;;;;;;;10.13;9.23;;;;;;;12.20;69.19;101336.97;5091614;28;20027;-59
2023/05/01 05:00:41;;;;;;;11.82;10.57;;;;;;;12.25;68.62;101335.72;5093059;28;20528;-59
2023/05/01 05:03:06;;;;;;;10.18;9.13;;;;;;;12.24;68.78;101334.03;5091391;28;20032;-59
2023/05/01 05:05:32;;;;;;;10.52;9.52;;;;;;;12.31;69.14;101334.47;5092772;28;20086;-59
2023/05/01 05:07:57;;;;;;;15.27;10.20;;;;;;;12.27;68.71;101340.97;5091158;28;20028;-59
2023/05/01 05:10:23;;;;;;;13.43;9.38;;;;;;;12.32;67.89;101344.19;5091138;28;20154;-59
2023/05/01 05:12:48;;;;;;;12.23;9.73;;;;;;;12.19;68.99;101346.78;5092824;28;20356;-59
2023/05/01 05:15:15;;;;;;;11.00;9.90;;;;;;;12.20;69.30;101337.81;5092646;28;20035;-59
2023/05/01 05:17:40;;;;;;;11.23;10.13;;;;;;;12.14;68.22;101340.84;5092720;28;20494;-59
2023/05/01 05:20:06;;;;;;;13.82;10.77;;;;;;;12.32;67.60;101332.66;5101092;28;20095;-59
2023/05/01 05:22:35;;;;;;;14.77;10.90;;;;;;;12.18;67.97;101336.22;5110133;28;20024;-59
2023/05/01 05:25:03;;;;;;;15.30;10.77;;;;;;;12.14;67.98;101326.69;5109446;28;20034;-59
2023/05/01 05:27:29;;;;;;;12.50;10.73;;;;;;;12.07;68.94;101344.00;5092194;28;20089;-59
2023/05/01 05:29:55;;;;;;;13.02;10.85;;;;;;;12.18;68.40;101338.88;5092496;28;20022;-59
2023/05/01 05:32:20;;;;;;;12.18;10.23;;;;;;;12.17;67.83;101337.16;5090922;28;20055;-59
2023/05/01 05:34:46;;;;;;;13.30;11.50;;;;;;;12.26;68.23;101339.25;5101350;28;20065;-59
2023/05/01 05:37:14;;;;;;;11.32;10.23;;;;;;;12.19;67.07;101328.09;5100449;28;20063;-59
2023/05/01 05:39:39;;;;;;;12.15;10.25;;;;;;;12.27;67.49;101333.81;5092438;28;20041;-59
2023/05/01 05:42:05;;;;;;;11.68;10.48;;;;;;;12.30;67.54;101340.78;5092187;28;20012;-59
2023/05/01 05:44:31;;;;;;;13.85;10.50;;;;;;;12.39;67.36;101334.88;5092209;28;20030;-59
2023/05/01 05:46:57;;;;;;;14.82;10.98;;;;;;;12.27;67.50;101328.50;5091764;28;20073;-59
2023/05/01 05:49:22;;;;;;;12.25;10.85;;;;;;;12.41;67.41;101337.44;5097329;28;20027;-59
2023/05/01 05:51:47;;;;;;;13.57;10.50;;;;;;;12.44;67.14;101334.56;5101703;28;20052;-59
2023/05/01 05:54:13;;;;;;;12.48;10.95;;;;;;;12.64;66.34;101333.31;5090226;28;20028;-59
2023/05/01 05:56:38;;;;;;;15.90;11.57;;;;;;;12.53;66.55;101342.00;5091890;28;20039;-59
2023/05/01 05:59:05;;;;;;;11.98;10.77;;;;;;;12.61;66.68;101329.00;5091968;28;20027;-59
2023/05/01 06:01:31;;;;;;;12.98;11.65;;;;;;;12.60;67.71;101340.66;5091858;28;20077;-59
2023/05/01 06:03:56;;;;;;;14.60;11.02;;;;;;;12.69;66.91;101341.88;5090725;28;20395;-59
2023/05/01 06:06:22;;;;;;;12.65;10.82;;;;;;;12.77;66.74;101336.91;5090000;28;20049;-59
2023/05/01 06:08:47;;;;;;;19.23;11.50;;;;;;;12.82;66.41;101332.09;5091778;28;20069;-59
2023/05/01 06:11:13;;;;;;;13.88;11.43;;;;;;;12.81;66.46;101329.56;5088969;28;20031;-59
2023/05/01 06:13:38;;;;;;;15.55;11.80;;;;;;;12.86;66.72;101330.13;5087791;28;20138;-59
2023/05/01 06:16:06;;;;;;;13.77;11.77;;;;;;;12.82;66.63;101337.44;5083662;28;20127;-59
2023/05/01 06:18:33;;;;;;;15.30;10.73;;;;;;;12.83;66.67;101341.00;5092683;28;20023;-59
2023/05/01 06:20:59;;;;;;;13.43;11.95;;;;;;;12.96;65.77;101336.56;5091908;28;20024;-59
2023/05/01 06:23:24;;;;;;;13.90;11.98;;;;;;;12.98;65.61;101334.66;5093403;28;20497;-59
2023/05/01 06:25:50;;;;;;;12.70;11.40;;;;;;;12.98;66.67;101326.66;5091743;28;20092;-59
2023/05/01 06:28:18;;;;;;;14.95;11.70;;;;;;;13.05;66.01;101327.94;5091062;28;20083;-59
2023/05/01 06:30:43;;;;;;;18.60;12.40;;;;;;;13.16;66.60;101325.44;5091815;28;20044;-59
2023/05/01 06:33:09;;;;;;;16.35;11.13;;;;;;;13.14;66.15;101326.47;5091721;28;20142;-59
2023/05/01 06:35:37;;;;;;;13.30;11.63;;;;;;;12.96;65.90;101316.06;5090361;28;20020;-59
2023/05/01 06:38:02;;;;;;;13.13;11.73;;;;;;;12.91;66.35;101328.88;5089625;28;20053;-59
2023/05/01 06:40:30;;;;;;;14.60;11.55;;;;;;;13.00;66.43;101326.53;5091673;28;20099;-59
2023/05/01 06:42:58;;;;;;;13.93;12.45;;;;;;;13.11;66.23;101318.69;5098093;28;20467;-59
2023/05/01 06:45:23;;;;;;;13.95;11.40;;;;;;;13.18;65.48;101325.34;5111579;28;20028;-59
2023/05/01 06:47:48;;;;;;;14.63;12.10;;;;;;;13.29;65.91;101319.28;5091428;28;20024;-59
2023/05/01 06:50:14;;;;;;;15.70;11.77;;;;;;;13.44;64.64;101318.25;5090289;28;20124;-59
2023/05/01 06:52:40;;;;;;;19.05;12.35;;;;;;;13.38;64.67;101318.66;5090235;28;20032;-59
2023/05/01 06:55:06;;;;;;;17.67;12.10;;;;;;;13.18;64.74;101314.66;5109932;28;20474;-59
2023/05/01 06:57:31;;;;;;;14.63;12.07;;;;;;;13.33;64.88;101320.81;5111337;28;20026;-59
2023/05/01 06:59:57;;;;;;;15.50;11.98;;;;;;;13.38;64.55;101311.53;5110960;28;20471;-59
2023/05/01 07:02:22;;;;;;;15.23;11.95;;;;;;;13.40;65.11;101320.28;5113117;28;20026;-59
2023/05/01 07:04:48;;;;;;;13.48;12.02;;;;;;;13.47;64.25;101319.88;5113557;28;20053;-59
2023/05/01 07:07:13;;;;;;;14.57;10.80;;;;;;;13.61;64.85;101312.63;5096257;28;20012;-59
2023/05/01 07:09:40;;;;;;;17.08;12.13;;;;;;;13.62;64.82;101305.50;5098414;28;20048;-59
2023/05/01 07:12:05;;;;;;;14.85;10.95;;;;;;;13.85;63.95;101317.25;5090379;28;20028;-59
2023/05/01 07:14:31;;;;;;;15.18;11.43;;;;;;;13.84;63.83;101305.69;5091928;28;20039;-59
2023/05/01 07:16:57;;;;;;;15.70;11.85;;;;;;;14.01;63.90;101312.56;5100136;28;20019;-59
2023/05/01 07:19:22;;;;;;;16.90;11.43;;;;;;;14.01;62.89;101315.22;5093006;28;20463;-59
2023/05/01 07:21:50;;;;;;;13.27;11.88;;;;;;;14.08;63.08;101321.00;5092009;28;20044;-59
2023/05/01 07:24:15;;;;;;;13.18;11.68;;;;;;;14.05;63.01;101316.72;5093191;28;20091;-59
2023/05/01 07:26:41;;;;;;;17.70;12.63;;;;;;;14.18;62.63;101322.06;5099954;28;20522;-59
2023/05/01 07:29:06;;;;;;;16.23;11.75;;;;;;;14.08;62.17;101319.16;5093810;28;20040;-59
2023/05/01 07:31:31;;;;;;;16.92;11.85;;;;;;;14.26;62.41;101318.84;5098653;28;20055;-59
2023/05/01 07:33:57;;;;;;;13.20;11.13;;;;;;;14.47;62.31;101322.69;5092356;28;20487;-59
2023/05/01 07:36:22;;;;;;;14.25;11.63;;;;;;;14.61;61.98;101323.53;5100893;28;20027;-59
2023/05/01 07:38:48;;;;;;;14.02;11.15;;;;;;;14.67;61.02;101321.25;5093914;28;20554;-59
2023/05/01 07:41:13;;;;;;;14.02;11.55;;;;;;;14.75;60.72;101316.19;5093542;28;20106;-59
2023/05/01 07:43:39;;;;;;;15.88;11.35;;;;;;;14.92;60.54;101324.81;5109374;28;20023;-59
2023/05/01 07:46:05;;;;;;;15.00;10.90;;;;;;;14.95;59.61;101322.78;5106769;28;20102;-59
2023/05/01 07:48:31;;;;;;;13.48;11.20;;;;;;;14.93;59.51;101321.16;5094339;28;20544;-59
2023/05/01 07:51:01;;;;;;;14.18;9.93;;;;;;;15.06;60.11;101331.81;5103108;28;20397;-59
2023/05/01 07:53:26;;;;;;;12.07;10.13;;;;;;;15.13;59.63;101322.38;5110912;28;20031;-59
2023/05/01 07:55:52;;;;;;;12.63;11.43;;;;;;;15.21;61.26;101322.66;5114643;28;20065;-59
2023/05/01 07:58:17;;;;;;;13.50;11.05;;;;;;;15.33;59.41;101321.72;5112412;28;20093;-59
2023/05/01 08:00:44;;;;;;;12.48;11.18;;;;;;;15.54;59.37;101326.44;5113401;28;20107;-59
2023/05/01 08:03:10;;;;;;;13.85;11.18;;;;;;;15.47;58.92;101311.78;5114733;28;20419;-59
2023/05/01 08:05:38;;;;;;;16.60;11.07;;;;;;;15.72;58.35;101321.53;5111828;27;20385;-59
2023/05/01 08:08:04;;;;;;;16.15;11.88;;;;;;;15.84;61.68;101318.72;5113960;28;20469;-59
2023/05/01 08:10:30;;;;;;;19.05;11.70;;;;;;;15.92;60.63;101318.16;5112598;28;20027;-59
2023/05/01 08:12:58;;;;;;;12.32;10.88;;;;;;;15.96;59.00;101308.88;5113712;28;20060;-59
2023/05/01 08:15:23;;;;;;;14.48;11.43;;;;;;;16.11;59.18;101321.06;5111872;28;20023;-59
2023/05/01 08:17:50;;;;;;;12.73;10.30;;;;;;;16.16;57.98;101312.66;5109339;28;20386;-59
2023/05/01 08:20:15;;;;;;;17.80;10.95;;;;;;;16.34;58.72;101315.72;5112119;28;20061;-59
2023/05/01 08:22:43;;;;;;;13.07;11.10;;;;;;;16.43;58.34;101314.97;5112506;28;20042;-59
2023/05/01 08:25:09;;;;;;;17.17;12.68;;;;;;;16.48;59.49;101306.56;5110423;28;20027;-59
2023/05/01 08:27:34;;;;;;;17.38;10.65;;;;;;;16.67;57.99;101312.13;5105171;28;20151;-59
2023/05/01 08:29:59;;;;;;;18.70;11.93;;;;;;;16.77;57.68;101312.28;5093419;28;20040;-59
2023/05/01 08:32:25;;;;;;;13.40;11.45;;;;;;;16.70;57.92;101303.81;5091583;28;20028;-60
2023/05/01 08:34:50;;;;;;;11.32;10.20;;;;;;;16.85;56.52;101309.81;5091035;28;20031;-59
2023/05/01 08:37:17;;;;;;;17.30;10.98;;;;;;;16.82;56.22;101304.69;5109684;28;20119;-59
2023/05/01 08:39:43;;;;;;;12.40;11.15;;;;;;;16.89;56.14;101300.53;5112609;27;20027;-60
2023/05/01 08:42:09;;;;;;;11.88;10.32;;;;;;;16.97;55.71;101313.31;5113927;28;20039;-59
2023/05/01 08:44:37;;;;;;;11.93;10.73;;;;;;;16.91;54.87;101312.00;5113765;28;20023;-59
2023/05/01 08:47:14;;;;;;;12.18;9.25;;;;;;;17.06;56.01;101317.97;5094707;28;20028;-60
2023/05/01 08:49:44;;;;;;;16.77;12.48;;;;;;;17.19;55.68;101323.16;5110562;28;20471;-59
2023/05/01 08:52:14;;;;;;;15.40;10.07;;;;;;;17.20;54.22;101327.53;5113460;28;20023;-59
2023/05/01 08:54:45;;;;;;;14.05;10.40;;;;;;;17.28;53.49;101313.47;5111216;28;20024;-59
2023/05/01 08:57:11;;;;;;;9.60;8.63;;;;;;;17.14;52.62;101323.53;5113629;28;20559;-60
2023/05/01 08:59:38;;;;;;;14.77;10.95;;;;;;;17.11;54.85;101328.31;5111432;28;20110;-59
2023/05/01 09:02:06;;;;;;;19.50;12.80;;;;;;;17.12;55.45;101314.75;5113108;28;20027;-59
2023/05/01 09:04:35;;;;;;;15.30;11.40;;;;;;;17.54;54.73;101322.03;5109796;28;20027;-59
2023/05/01 09:07:01;;;;;;;13.10;10.27;;;;;;;17.65;56.02;101325.50;5111553;28;20258;-59
2023/05/01 09:09:28;;;;;;;17.77;11.55;;;;;;;17.76;55.28;101323.72;5113048;28;20035;-60
2023/05/01 09:12:21;;;;;;;20.30;12.75;;;;;;;17.75;54.37;101327.41;5111820;28;20032;-59
2023/05/01 09:14:46;;;;;;;11.65;10.50;;;;;;;17.70;53.51;101322.41;5112006;28;20034;-59
2023/05/01 09:17:12;;;;;;;15.50;11.20;;;;;;;17.88;55.55;101320.88;5111510;28;20111;-59
2023/05/01 09:19:39;;;;;;;14.48;11.48;;;;;;;18.06;55.43;101315.72;5107882;28;20406;-59
2023/05/01 09:22:08;;;;;;;12.48;10.60;;;;;;;17.98;54.81;101322.78;5106767;28;20160;-59
2023/05/01 09:24:33;;;;;;;12.57;10.60;;;;;;;17.96;53.31;101325.56;5111873;28;20048;-59
2023/05/01 09:27:01;;;;;;;19.38;11.10;;;;;;;18.09;55.34;101323.53;5112502;28;20103;-60
2023/05/01 09:29:39;;;;;;;12.63;10.98;;;;;;;18.13;53.71;101326.81;5108684;28;20020;-60
2023/05/01 09:32:22;;;;;;;13.82;11.15;;;;;;;18.17;53.71;101325.53;5106906;28;20031;-61
2023/05/01 09:34:48;;;;;;;13.13;10.73;;;;;;;18.12;53.65;101323.28;5091779;28;20016;-61
2023/05/01 09:37:31;;;;;;;15.82;9.93;;;;;;;18.34;53.83;101322.22;5097761;28;20433;-59
2023/05/01 09:40:05;;;;;;;16.52;11.45;;;;;;;18.38;53.43;101326.38;5112519;28;20047;-60
2023/05/01 09:42:32;;;;;;;12.05;10.02;;;;;;;18.39;53.29;101319.13;5106907;28;20501;-60
2023/05/01 09:44:59;;;;;;;13.75;10.00;;;;;;;18.53;53.29;101320.59;5110196;28;21840;-67
2023/05/01 09:47:27;;;;;;;11.02;9.68;;;;;;;18.74;51.56;101317.88;5098246;28;20103;-70
2023/05/01 09:49:55;;;;;;;12.38;9.65;;;;;;;19.17;51.58;101317.47;5090405;28;20039;-63
2023/05/01 09:52:21;;;;;;;12.05;10.27;;;;;;;19.31;52.03;101318.06;5091568;28;20228;-63
2023/05/01 09:54:47;;;;;;;11.52;10.02;;;;;;;19.57;50.73;101321.88;5092302;28;20024;-63
2023/05/01 09:57:12;;;;;;;15.82;11.20;;;;;;;19.56;50.93;101317.50;5112399;28;20106;-63
2023/05/01 09:59:38;;;;;;;12.07;10.57;;;;;;;19.79;49.68;101327.97;5111018;28;20481;-63
2023/05/01 10:02:03;;;;;;;12.75;9.90;;;;;;;19.63;48.07;101325.84;5106214;28;20031;-63
2023/05/01 10:04:40;;;;;;;11.68;10.13;;;;;;;19.53;49.90;101336.66;5112381;28;20069;-63
2023/05/01 10:07:13;;;;;;;15.27;11.23;;;;;;;19.32;50.97;101325.16;5111793;28;20106;-63
2023/05/01 10:09:41;;;;;;;19.95;10.48;;;;;;;19.28;51.96;101321.88;5111044;28;20030;-63
2023/05/01 10:12:06;;;;;;;12.77;10.63;;;;;;;19.24;50.39;101328.56;5108556;28;20027;-63
2023/05/01 10:14:37;;;;;;;11.82;10.05;;;;;;;19.30;53.16;101325.31;5096091;28;20144;-63
2023/05/01 10:17:16;;;;;;;13.73;9.43;;;;;;;19.32;49.84;101331.38;5094535;28;20511;-63
2023/05/01 10:19:44;;;;;;;16.92;11.88;;;;;;;19.20;49.89;101329.81;5077776;28;20055;-63
2023/05/01 10:22:10;;;;;;;13.18;10.45;;;;;;;19.33;49.99;101325.03;5108099;28;20115;-63
2023/05/01 10:24:36;;;;;;;11.25;9.50;;;;;;;19.26;48.67;101331.97;5071430;28;20103;-63
2023/05/01 10:27:05;;;;;;;10.10;8.57;;;;;;;19.45;50.95;101331.97;5086754;28;20546;-62
2023/05/01 10:29:33;;;;;;;10.55;9.25;;;;;;;19.62;48.24;101335.81;5070839;28;20032;-63
2023/05/01 10:32:05;;;;;;;12.63;8.93;;;;;;;19.51;48.35;101338.66;5071096;28;20479;-63
2023/05/01 10:34:37;;;;;;;11.75;9.82;;;;;;;19.46;48.90;101333.66;5071347;28;20056;-63
2023/05/01 10:37:14;;;;;;;15.20;11.50;;;;;;;19.56;50.76;101330.09;5110505;28;20491;-63
2023/05/01 10:39:39;;;;;;;19.05;11.88;;;;;;;19.51;49.31;101328.69;5093321;28;20051;-70
2023/05/01 10:42:07;;;;;;;11.50;9.30;;;;;;;19.48;50.26;101330.84;5116027;28;20047;-67
2023/05/01 10:44:33;;;;;;;12.20;10.20;;;;;;;19.56;51.89;101330.97;5115584;28;20019;-66
2023/05/01 10:46:59;;;;;;;14.30;10.02;;;;;;;19.44;49.77;101341.06;5102396;28;20073;-65
2023/05/01 10:50:03;;;;;;;13.60;8.60;;;;;;;19.45;50.43;101341.91;5098214;28;20016;-65
2023/05/01 10:52:30;;;;;;;11.98;10.10;;;;;;;19.18;49.80;101346.16;5115147;28;20040;-64
2023/05/01 10:55:44;;;;;;;15.48;10.43;;;;;;;19.20;50.47;101351.41;5113916;28;20027;-64
2023/05/01 10:58:33;;;;;;;12.63;10.00;;;;;;;19.20;50.71;101352.25;5112091;28;20035;-63
2023/05/01 11:01:27;;;;;;;12.10;9.40;;;;;;;19.40;53.04;101346.88;5112759;28;20034;-63
2023/05/01 11:03:53;;;;;;;14.90;10.65;;;;;;;19.76;53.08;101344.47;5114531;28;20023;-63
2023/05/01 11:06:21;;;;;;;12.07;9.50;;;;;;;19.79;49.45;101331.53;5115189;27;20032;-63
2023/05/01 11:08:47;;;;;;;13.23;8.93;;;;;;;19.93;47.70;101336.47;5112130;27;20424;-64
2023/05/01 11:11:19;;;;;;;14.00;10.00;;;;;;;20.18;52.20;101343.09;5112973;28;20038;-64
2023/05/01 11:14:09;;;;;;;14.48;9.98;;;;;;;20.28;49.03;101343.06;5115183;28;20027;-63
2023/05/01 11:16:40;;;;;;;14.48;9.43;;;;;;;20.44;48.87;101350.50;5115380;28;20106;-63
2023/05/01 11:19:09;;;;;;;10.85;8.48;;;;;;;20.12;47.60;101342.84;5115468;28;20027;-63
2023/05/01 11:21:37;;;;;;;15.90;9.80;;;;;;;19.94;47.09;101350.81;5114718;28;20030;-63